sensor_id;sensor_type;location;lat;lon;timestamp;temperature;humidity
18753;DHT22;9505;50.882;5.350;2023-10-31T00:01:04;10.70;99.90
18753;DHT22;9505;50.882;5.350;2023-10-31T00:03:30;10.70;99.90
18753;DHT22;9505;50.882;5.350;2023-10-31T00:05:56;10.60;99.90
18753;DHT22;9505;50.882;5.350;2023-10-31T00:08:21;10.60;99.90
18753;DHT22;9505;50.882;5.350;2023-10-31T00:10:47;10.60;99.90
18753;DHT22;9505;50.882;5.350;2023-10-31T00:13:12;10.50;99.90
18753;DHT22;9505;50.882;5.350;2023-10-31T00:15:38;10.50;99.90
18753;DHT22;9505;50.882;5.350;2023-10-31T00:18:04;10.60;99.90
18753;DHT22;9505;50.882;5.350;2023-10-31T00:20:30;10.60;99.90
18753;DHT22;9505;50.882;5.350;2023-10-31T00:22:55;10.60;99.90
18753;DHT22;9505;50.882;5.350;2023-10-31T00:25:21;10.60;99.90
18753;DHT22;9505;50.882;5.350;2023-10-31T00:27:47;10.50;99.90
18753;DHT22;9505;50.882;5.350;2023-10-31T00:30:12;10.50;99.90
18753;DHT22;9505;50.882;5.350;2023-10-31T00:32:38;10.50;99.90
18753;DHT22;9505;50.882;5.350;2023-10-31T00:35:04;10.50;99.90
18753;DHT22;9505;50.882;5.350;2023-10-31T00:37:29;10.50;99.90
18753;DHT22;9505;50.882;5.350;2023-10-31T00:39:55;10.30;99.90
18753;DHT22;9505;50.882;5.350;2023-10-31T00:42:21;10.30;99.90
18753;DHT22;9505;50.882;5.350;2023-10-31T00:44:46;10.30;99.90
18753;DHT22;9505;50.882;5.350;2023-10-31T00:47:12;10.20;99.90
18753;DHT22;9505;50.882;5.350;2023-10-31T00:49:37;10.30;99.90
18753;DHT22;9505;50.882;5.350;2023-10-31T00:52:03;10.40;99.90
18753;DHT22;9505;50.882;5.350;2023-10-31T00:54:29;10.40;99.90
18753;DHT22;9505;50.882;5.350;2023-10-31T00:56:54;10.40;99.90
18753;DHT22;9505;50.882;5.350;2023-10-31T00:59:20;10.50;99.90
18753;DHT22;9505;50.882;5.350;2023-10-31T01:01:45;10.50;99.90
18753;DHT22;9505;50.882;5.350;2023-10-31T01:04:11;10.50;99.90
18753;DHT22;9505;50.882;5.350;2023-10-31T01:06:43;10.60;99.90
18753;DHT22;9505;50.882;5.350;2023-10-31T01:09:09;10.60;99.90
18753;DHT22;9505;50.882;5.350;2023-10-31T01:11:35;10.60;99.90
18753;DHT22;9505;50.882;5.350;2023-10-31T01:14:01;10.60;99.90
18753;DHT22;9505;50.882;5.350;2023-10-31T01:16:27;10.70;99.90
18753;DHT22;9505;50.882;5.350;2023-10-31T01:18:52;10.60;99.90
18753;DHT22;9505;50.882;5.350;2023-10-31T01:21:18;10.70;99.90
18753;DHT22;9505;50.882;5.350;2023-10-31T01:23:44;10.70;99.90
18753;DHT22;9505;50.882;5.350;2023-10-31T01:26:09;10.70;99.90
18753;DHT22;9505;50.882;5.350;2023-10-31T01:28:35;10.80;99.90
18753;DHT22;9505;50.882;5.350;2023-10-31T01:31:01;10.80;99.90
18753;DHT22;9505;50.882;5.350;2023-10-31T01:33:26;10.80;99.90
18753;DHT22;9505;50.882;5.350;2023-10-31T01:35:52;10.90;99.90
18753;DHT22;9505;50.882;5.350;2023-10-31T01:38:17;10.80;99.90
18753;DHT22;9505;50.882;5.350;2023-10-31T01:40:43;10.80;99.90
18753;DHT22;9505;50.882;5.350;2023-10-31T01:43:09;10.80;99.90
18753;DHT22;9505;50.882;5.350;2023-10-31T01:45:34;10.80;99.90
18753;DHT22;9505;50.882;5.350;2023-10-31T01:48:00;10.90;99.90
18753;DHT22;9505;50.882;5.350;2023-10-31T01:50:26;10.90;99.90
18753;DHT22;9505;50.882;5.350;2023-10-31T01:52:52;10.90;99.90
18753;DHT22;9505;50.882;5.350;2023-10-31T01:55:18;10.90;99.90
18753;DHT22;9505;50.882;5.350;2023-10-31T01:57:45;10.80;99.90
18753;DHT22;9505;50.882;5.350;2023-10-31T02:00:13;11.00;99.90
18753;DHT22;9505;50.882;5.350;2023-10-31T02:02:40;11.00;99.90
18753;DHT22;9505;50.882;5.350;2023-10-31T02:05:10;11.00;99.90
18753;DHT22;9505;50.882;5.350;2023-10-31T02:07:35;11.10;99.90
18753;DHT22;9505;50.882;5.350;2023-10-31T02:10:01;11.10;99.90
18753;DHT22;9505;50.882;5.350;2023-10-31T02:12:33;11.00;99.90
18753;DHT22;9505;50.882;5.350;2023-10-31T02:14:59;11.00;99.90
18753;DHT22;9505;50.882;5.350;2023-10-31T02:17:25;11.00;99.90
18753;DHT22;9505;50.882;5.350;2023-10-31T02:19:50;11.00;99.90
18753;DHT22;9505;50.882;5.350;2023-10-31T02:22:16;11.00;99.90
18753;DHT22;9505;50.882;5.350;2023-10-31T02:24:42;10.90;99.90
18753;DHT22;9505;50.882;5.350;2023-10-31T02:27:07;11.00;99.90
18753;DHT22;9505;50.882;5.350;2023-10-31T02:29:33;11.00;99.90
18753;DHT22;9505;50.882;5.350;2023-10-31T02:31:59;11.10;99.90
18753;DHT22;9505;50.882;5.350;2023-10-31T02:34:24;11.10;99.90
18753;DHT22;9505;50.882;5.350;2023-10-31T02:36:51;11.10;99.90
18753;DHT22;9505;50.882;5.350;2023-10-31T02:39:17;11.10;99.90
18753;DHT22;9505;50.882;5.350;2023-10-31T02:41:43;11.10;99.90
18753;DHT22;9505;50.882;5.350;2023-10-31T02:44:09;11.10;99.90
18753;DHT22;9505;50.882;5.350;2023-10-31T02:46:38;11.00;99.90
18753;DHT22;9505;50.882;5.350;2023-10-31T02:49:04;11.00;99.90
18753;DHT22;9505;50.882;5.350;2023-10-31T02:51:29;10.90;99.90
18753;DHT22;9505;50.882;5.350;2023-10-31T02:53:55;11.00;99.90
18753;DHT22;9505;50.882;5.350;2023-10-31T02:56:20;10.90;99.90
18753;DHT22;9505;50.882;5.350;2023-10-31T02:58:46;10.90;99.90
18753;DHT22;9505;50.882;5.350;2023-10-31T03:01:12;11.00;99.90
18753;DHT22;9505;50.882;5.350;2023-10-31T03:03:37;11.00;99.90
18753;DHT22;9505;50.882;5.350;2023-10-31T03:06:04;11.00;99.90
18753;DHT22;9505;50.882;5.350;2023-10-31T03:08:30;10.90;99.90
18753;DHT22;9505;50.882;5.350;2023-10-31T03:10:56;10.80;99.90
18753;DHT22;9505;50.882;5.350;2023-10-31T03:13:22;10.70;99.90
18753;DHT22;9505;50.882;5.350;2023-10-31T03:15:49;10.70;99.90
18753;DHT22;9505;50.882;5.350;2023-10-31T03:18:14;10.70;99.90
18753;DHT22;9505;50.882;5.350;2023-10-31T03:20:40;10.70;99.90
18753;DHT22;9505;50.882;5.350;2023-10-31T03:23:06;10.80;99.90
18753;DHT22;9505;50.882;5.350;2023-10-31T03:25:31;10.80;99.90
18753;DHT22;9505;50.882;5.350;2023-10-31T03:27:57;10.70;99.90
18753;DHT22;9505;50.882;5.350;2023-10-31T03:30:22;10.70;99.90
18753;DHT22;9505;50.882;5.350;2023-10-31T03:32:49;10.70;99.90
18753;DHT22;9505;50.882;5.350;2023-10-31T03:35:15;10.60;99.90
18753;DHT22;9505;50.882;5.350;2023-10-31T03:37:40;10.70;99.90
18753;DHT22;9505;50.882;5.350;2023-10-31T03:40:09;10.70;99.90
18753;DHT22;9505;50.882;5.350;2023-10-31T03:42:35;10.80;99.90
18753;DHT22;9505;50.882;5.350;2023-10-31T03:45:00;10.70;99.90
18753;DHT22;9505;50.882;5.350;2023-10-31T03:47:26;10.70;99.90
18753;DHT22;9505;50.882;5.350;2023-10-31T03:49:52;10.70;99.90
18753;DHT22;9505;50.882;5.350;2023-10-31T03:52:17;10.80;99.90
18753;DHT22;9505;50.882;5.350;2023-10-31T03:54:44;10.80;99.90
18753;DHT22;9505;50.882;5.350;2023-10-31T03:57:10;10.90;99.90
18753;DHT22;9505;50.882;5.350;2023-10-31T03:59:37;10.80;99.90
18753;DHT22;9505;50.882;5.350;2023-10-31T04:02:03;10.80;99.90
18753;DHT22;9505;50.882;5.350;2023-10-31T04:04:28;10.80;99.90
18753;DHT22;9505;50.882;5.350;2023-10-31T04:06:54;10.70;99.90
18753;DHT22;9505;50.882;5.350;2023-10-31T04:09:20;10.80;99.90
18753;DHT22;9505;50.882;5.350;2023-10-31T04:11:45;10.70;99.90
18753;DHT22;9505;50.882;5.350;2023-10-31T04:14:11;10.70;99.90
18753;DHT22;9505;50.882;5.350;2023-10-31T04:16:40;10.70;99.90
18753;DHT22;9505;50.882;5.350;2023-10-31T04:19:11;10.70;99.90
18753;DHT22;9505;50.882;5.350;2023-10-31T04:21:37;10.60;99.90
18753;DHT22;9505;50.882;5.350;2023-10-31T04:24:03;10.60;99.90
18753;DHT22;9505;50.882;5.350;2023-10-31T04:26:29;10.70;99.90
18753;DHT22;9505;50.882;5.350;2023-10-31T04:28:55;10.80;99.90
18753;DHT22;9505;50.882;5.350;2023-10-31T04:31:20;10.80;99.90
18753;DHT22;9505;50.882;5.350;2023-10-31T04:33:46;10.70;99.90
18753;DHT22;9505;50.882;5.350;2023-10-31T04:36:11;10.70;99.90
18753;DHT22;9505;50.882;5.350;2023-10-31T04:38:37;10.70;99.90
18753;DHT22;9505;50.882;5.350;2023-10-31T04:41:04;10.80;99.90
18753;DHT22;9505;50.882;5.350;2023-10-31T04:43:29;10.70;99.90
18753;DHT22;9505;50.882;5.350;2023-10-31T04:45:55;10.60;99.90
18753;DHT22;9505;50.882;5.350;2023-10-31T04:48:21;10.60;99.90
18753;DHT22;9505;50.882;5.350;2023-10-31T04:50:46;10.50;99.90
18753;DHT22;9505;50.882;5.350;2023-10-31T04:53:12;10.50;99.90
18753;DHT22;9505;50.882;5.350;2023-10-31T04:55:37;10.50;99.90
18753;DHT22;9505;50.882;5.350;2023-10-31T04:58:03;10.40;99.90
18753;DHT22;9505;50.882;5.350;2023-10-31T05:00:29;10.30;99.90
18753;DHT22;9505;50.882;5.350;2023-10-31T05:02:54;10.20;99.90
18753;DHT22;9505;50.882;5.350;2023-10-31T05:05:21;10.20;99.90
18753;DHT22;9505;50.882;5.350;2023-10-31T05:07:47;10.20;99.90
18753;DHT22;9505;50.882;5.350;2023-10-31T05:10:13;10.20;99.90
18753;DHT22;9505;50.882;5.350;2023-10-31T05:12:38;10.10;99.90
18753;DHT22;9505;50.882;5.350;2023-10-31T05:15:04;10.10;99.90
18753;DHT22;9505;50.882;5.350;2023-10-31T05:17:30;10.00;99.90
18753;DHT22;9505;50.882;5.350;2023-10-31T05:19:56;10.00;99.90
18753;DHT22;9505;50.882;5.350;2023-10-31T05:22:21;9.90;99.90
18753;DHT22;9505;50.882;5.350;2023-10-31T05:24:47;9.90;99.90
18753;DHT22;9505;50.882;5.350;2023-10-31T05:27:12;9.80;99.90
18753;DHT22;9505;50.882;5.350;2023-10-31T05:29:41;9.90;99.90
18753;DHT22;9505;50.882;5.350;2023-10-31T05:32:07;9.90;99.90
18753;DHT22;9505;50.882;5.350;2023-10-31T05:34:32;9.80;99.90
18753;DHT22;9505;50.882;5.350;2023-10-31T05:36:58;9.90;99.90
18753;DHT22;9505;50.882;5.350;2023-10-31T05:39:23;10.00;99.90
18753;DHT22;9505;50.882;5.350;2023-10-31T05:41:49;9.90;99.90
18753;DHT22;9505;50.882;5.350;2023-10-31T05:44:15;9.80;99.90
18753;DHT22;9505;50.882;5.350;2023-10-31T05:46:40;9.80;99.90
18753;DHT22;9505;50.882;5.350;2023-10-31T05:49:07;9.80;99.90
18753;DHT22;9505;50.882;5.350;2023-10-31T05:51:33;9.70;99.90
18753;DHT22;9505;50.882;5.350;2023-10-31T05:54:00;9.80;99.90
18753;DHT22;9505;50.882;5.350;2023-10-31T05:56:26;9.80;99.90
18753;DHT22;9505;50.882;5.350;2023-10-31T05:58:52;9.90;99.90
18753;DHT22;9505;50.882;5.350;2023-10-31T06:01:17;9.90;99.90
18753;DHT22;9505;50.882;5.350;2023-10-31T06:03:43;9.90;99.90
18753;DHT22;9505;50.882;5.350;2023-10-31T06:06:10;9.80;99.90
18753;DHT22;9505;50.882;5.350;2023-10-31T06:08:36;9.70;99.90
18753;DHT22;9505;50.882;5.350;2023-10-31T06:11:03;9.70;99.90
18753;DHT22;9505;50.882;5.350;2023-10-31T06:13:29;9.70;99.90
18753;DHT22;9505;50.882;5.350;2023-10-31T06:15:57;9.70;99.90
18753;DHT22;9505;50.882;5.350;2023-10-31T06:18:23;9.70;99.90
18753;DHT22;9505;50.882;5.350;2023-10-31T06:20:49;9.70;99.90
18753;DHT22;9505;50.882;5.350;2023-10-31T06:23:15;9.70;99.90
18753;DHT22;9505;50.882;5.350;2023-10-31T06:25:40;9.70;99.90
18753;DHT22;9505;50.882;5.350;2023-10-31T06:28:06;9.80;99.90
18753;DHT22;9505;50.882;5.350;2023-10-31T06:30:31;9.80;99.90
18753;DHT22;9505;50.882;5.350;2023-10-31T06:32:58;9.80;99.90
18753;DHT22;9505;50.882;5.350;2023-10-31T06:35:24;9.80;99.90
18753;DHT22;9505;50.882;5.350;2023-10-31T06:37:51;9.80;99.90
18753;DHT22;9505;50.882;5.350;2023-10-31T06:40:17;9.80;99.90
18753;DHT22;9505;50.882;5.350;2023-10-31T06:42:43;9.80;99.90
18753;DHT22;9505;50.882;5.350;2023-10-31T06:45:08;9.80;99.90
18753;DHT22;9505;50.882;5.350;2023-10-31T06:47:34;9.90;99.90
18753;DHT22;9505;50.882;5.350;2023-10-31T06:50:00;9.80;99.90
18753;DHT22;9505;50.882;5.350;2023-10-31T06:52:25;9.80;99.90
18753;DHT22;9505;50.882;5.350;2023-10-31T06:54:52;9.90;99.90
18753;DHT22;9505;50.882;5.350;2023-10-31T06:57:17;9.90;99.90
18753;DHT22;9505;50.882;5.350;2023-10-31T06:59:43;9.90;99.90
18753;DHT22;9505;50.882;5.350;2023-10-31T07:02:09;9.90;99.90
18753;DHT22;9505;50.882;5.350;2023-10-31T07:04:34;9.90;99.90
18753;DHT22;9505;50.882;5.350;2023-10-31T07:07:00;9.90;99.90
18753;DHT22;9505;50.882;5.350;2023-10-31T07:09:26;10.00;99.90
18753;DHT22;9505;50.882;5.350;2023-10-31T07:11:52;10.00;99.90
18753;DHT22;9505;50.882;5.350;2023-10-31T07:14:18;10.00;99.90
18753;DHT22;9505;50.882;5.350;2023-10-31T07:16:43;10.10;99.90
18753;DHT22;9505;50.882;5.350;2023-10-31T07:19:12;10.10;99.90
18753;DHT22;9505;50.882;5.350;2023-10-31T07:21:38;10.20;99.90
18753;DHT22;9505;50.882;5.350;2023-10-31T07:24:03;10.30;99.90
18753;DHT22;9505;50.882;5.350;2023-10-31T07:26:29;10.20;99.90
18753;DHT22;9505;50.882;5.350;2023-10-31T07:28:55;10.30;99.90
18753;DHT22;9505;50.882;5.350;2023-10-31T07:31:21;10.30;99.90
18753;DHT22;9505;50.882;5.350;2023-10-31T07:33:47;10.40;99.90
18753;DHT22;9505;50.882;5.350;2023-10-31T07:36:13;10.50;99.90
18753;DHT22;9505;50.882;5.350;2023-10-31T07:38:38;10.40;99.90
18753;DHT22;9505;50.882;5.350;2023-10-31T07:41:04;10.40;99.90
18753;DHT22;9505;50.882;5.350;2023-10-31T07:43:30;10.50;99.90
18753;DHT22;9505;50.882;5.350;2023-10-31T07:45:55;10.50;99.90
18753;DHT22;9505;50.882;5.350;2023-10-31T07:48:21;10.50;99.90
18753;DHT22;9505;50.882;5.350;2023-10-31T07:50:46;10.60;99.90
18753;DHT22;9505;50.882;5.350;2023-10-31T07:53:12;10.70;99.90
18753;DHT22;9505;50.882;5.350;2023-10-31T07:55:38;10.70;99.90
18753;DHT22;9505;50.882;5.350;2023-10-31T07:58:03;10.80;99.90
18753;DHT22;9505;50.882;5.350;2023-10-31T08:00:29;10.90;99.90
18753;DHT22;9505;50.882;5.350;2023-10-31T08:02:56;11.10;99.90
18753;DHT22;9505;50.882;5.350;2023-10-31T08:05:21;11.20;99.90
18753;DHT22;9505;50.882;5.350;2023-10-31T08:07:47;11.50;99.90
18753;DHT22;9505;50.882;5.350;2023-10-31T08:10:13;11.50;99.90
18753;DHT22;9505;50.882;5.350;2023-10-31T08:12:39;11.70;99.90
18753;DHT22;9505;50.882;5.350;2023-10-31T08:15:05;12.00;99.90
18753;DHT22;9505;50.882;5.350;2023-10-31T08:17:30;12.30;99.90
18753;DHT22;9505;50.882;5.350;2023-10-31T08:19:56;12.70;99.90
18753;DHT22;9505;50.882;5.350;2023-10-31T08:22:22;12.80;99.90
18753;DHT22;9505;50.882;5.350;2023-10-31T08:24:47;12.70;99.90
18753;DHT22;9505;50.882;5.350;2023-10-31T08:27:13;12.50;99.90
18753;DHT22;9505;50.882;5.350;2023-10-31T08:29:39;12.60;99.90
18753;DHT22;9505;50.882;5.350;2023-10-31T08:32:05;12.60;99.90
18753;DHT22;9505;50.882;5.350;2023-10-31T08:34:31;12.60;99.90
18753;DHT22;9505;50.882;5.350;2023-10-31T08:36:56;12.60;99.90
18753;DHT22;9505;50.882;5.350;2023-10-31T08:39:23;12.40;99.90
18753;DHT22;9505;50.882;5.350;2023-10-31T08:41:53;12.10;99.90
18753;DHT22;9505;50.882;5.350;2023-10-31T08:44:19;12.00;99.90
18753;DHT22;9505;50.882;5.350;2023-10-31T08:46:45;11.90;99.90
18753;DHT22;9505;50.882;5.350;2023-10-31T08:49:10;11.70;99.90
18753;DHT22;9505;50.882;5.350;2023-10-31T08:51:36;11.60;99.90
18753;DHT22;9505;50.882;5.350;2023-10-31T08:54:02;11.50;99.90
18753;DHT22;9505;50.882;5.350;2023-10-31T08:56:28;11.30;99.90
18753;DHT22;9505;50.882;5.350;2023-10-31T08:58:53;11.40;99.90
18753;DHT22;9505;50.882;5.350;2023-10-31T09:01:19;11.50;99.90
18753;DHT22;9505;50.882;5.350;2023-10-31T09:03:45;11.60;99.90
18753;DHT22;9505;50.882;5.350;2023-10-31T09:06:11;11.80;99.90
18753;DHT22;9505;50.882;5.350;2023-10-31T09:08:36;11.90;99.90
18753;DHT22;9505;50.882;5.350;2023-10-31T09:11:04;11.70;99.90
18753;DHT22;9505;50.882;5.350;2023-10-31T09:13:30;11.90;99.90
18753;DHT22;9505;50.882;5.350;2023-10-31T09:16:00;12.20;99.90
18753;DHT22;9505;50.882;5.350;2023-10-31T09:18:26;12.40;99.90
18753;DHT22;9505;50.882;5.350;2023-10-31T09:20:52;13.00;99.90
18753;DHT22;9505;50.882;5.350;2023-10-31T09:23:18;13.40;99.90
18753;DHT22;9505;50.882;5.350;2023-10-31T09:25:44;13.70;99.90
18753;DHT22;9505;50.882;5.350;2023-10-31T09:28:10;14.10;99.90
18753;DHT22;9505;50.882;5.350;2023-10-31T09:30:36;13.90;99.90
18753;DHT22;9505;50.882;5.350;2023-10-31T09:33:01;13.40;99.90
18753;DHT22;9505;50.882;5.350;2023-10-31T09:35:27;13.20;99.90
18753;DHT22;9505;50.882;5.350;2023-10-31T09:37:53;13.60;99.90
18753;DHT22;9505;50.882;5.350;2023-10-31T09:40:19;14.20;99.90
18753;DHT22;9505;50.882;5.350;2023-10-31T09:42:45;14.30;99.90
18753;DHT22;9505;50.882;5.350;2023-10-31T09:45:12;14.00;99.90
18753;DHT22;9505;50.882;5.350;2023-10-31T09:47:38;13.60;99.90
18753;DHT22;9505;50.882;5.350;2023-10-31T09:50:04;13.30;99.90
18753;DHT22;9505;50.882;5.350;2023-10-31T09:52:30;13.20;99.90
18753;DHT22;9505;50.882;5.350;2023-10-31T09:54:56;13.50;99.90
18753;DHT22;9505;50.882;5.350;2023-10-31T09:57:22;14.10;99.90
18753;DHT22;9505;50.882;5.350;2023-10-31T09:59:47;14.20;99.90
18753;DHT22;9505;50.882;5.350;2023-10-31T10:02:13;13.90;99.90
18753;DHT22;9505;50.882;5.350;2023-10-31T10:04:39;13.50;99.90
18753;DHT22;9505;50.882;5.350;2023-10-31T10:07:05;13.20;99.90
18753;DHT22;9505;50.882;5.350;2023-10-31T10:09:31;13.10;99.90
18753;DHT22;9505;50.882;5.350;2023-10-31T10:12:00;13.10;99.90
18753;DHT22;9505;50.882;5.350;2023-10-31T10:14:27;12.90;99.90
18753;DHT22;9505;50.882;5.350;2023-10-31T10:16:59;13.10;99.90
18753;DHT22;9505;50.882;5.350;2023-10-31T10:19:25;12.90;99.90
18753;DHT22;9505;50.882;5.350;2023-10-31T10:21:53;12.90;99.90
18753;DHT22;9505;50.882;5.350;2023-10-31T10:24:20;12.80;99.90
18753;DHT22;9505;50.882;5.350;2023-10-31T10:26:47;12.90;99.90
18753;DHT22;9505;50.882;5.350;2023-10-31T10:29:13;13.10;99.90
18753;DHT22;9505;50.882;5.350;2023-10-31T10:31:39;13.50;99.90
18753;DHT22;9505;50.882;5.350;2023-10-31T10:34:06;13.90;99.90
18753;DHT22;9505;50.882;5.350;2023-10-31T10:36:33;14.00;99.90
18753;DHT22;9505;50.882;5.350;2023-10-31T10:38:59;14.80;99.90
18753;DHT22;9505;50.882;5.350;2023-10-31T10:41:26;15.50;99.90
18753;DHT22;9505;50.882;5.350;2023-10-31T10:43:57;16.00;99.90
18753;DHT22;9505;50.882;5.350;2023-10-31T10:46:28;16.10;99.90
18753;DHT22;9505;50.882;5.350;2023-10-31T10:48:58;15.50;99.90
18753;DHT22;9505;50.882;5.350;2023-10-31T10:54:22;14.90;99.90
18753;DHT22;9505;50.882;5.350;2023-10-31T10:56:55;14.90;99.90
18753;DHT22;9505;50.882;5.350;2023-10-31T10:59:40;14.90;99.90
18753;DHT22;9505;50.882;5.350;2023-10-31T11:02:06;14.90;99.90
18753;DHT22;9505;50.882;5.350;2023-10-31T11:04:34;15.00;99.90
18753;DHT22;9505;50.882;5.350;2023-10-31T11:07:00;15.30;99.90
18753;DHT22;9505;50.882;5.350;2023-10-31T11:09:25;15.70;99.90
18753;DHT22;9505;50.882;5.350;2023-10-31T11:11:52;15.50;99.90
18753;DHT22;9505;50.882;5.350;2023-10-31T11:14:19;15.30;99.90
18753;DHT22;9505;50.882;5.350;2023-10-31T11:16:48;14.90;99.90
18753;DHT22;9505;50.882;5.350;2023-10-31T11:19:17;14.40;99.90
18753;DHT22;9505;50.882;5.350;2023-10-31T11:24:26;14.00;99.90
18753;DHT22;9505;50.882;5.350;2023-10-31T11:26:53;14.10;99.90
18753;DHT22;9505;50.882;5.350;2023-10-31T11:29:23;14.10;99.90
18753;DHT22;9505;50.882;5.350;2023-10-31T11:31:48;14.20;99.90
18753;DHT22;9505;50.882;5.350;2023-10-31T11:34:16;14.20;99.90
18753;DHT22;9505;50.882;5.350;2023-10-31T11:36:44;14.30;99.90
18753;DHT22;9505;50.882;5.350;2023-10-31T11:39:13;14.10;99.90
18753;DHT22;9505;50.882;5.350;2023-10-31T11:41:39;14.40;99.90
18753;DHT22;9505;50.882;5.350;2023-10-31T11:44:05;14.40;99.90
18753;DHT22;9505;50.882;5.350;2023-10-31T11:46:30;14.10;99.90
18753;DHT22;9505;50.882;5.350;2023-10-31T11:48:56;14.20;99.90
18753;DHT22;9505;50.882;5.350;2023-10-31T11:51:22;14.10;99.90
18753;DHT22;9505;50.882;5.350;2023-10-31T11:53:49;13.90;99.90
18753;DHT22;9505;50.882;5.350;2023-10-31T11:56:18;13.90;99.90
18753;DHT22;9505;50.882;5.350;2023-10-31T11:58:43;14.10;99.90
18753;DHT22;9505;50.882;5.350;2023-10-31T12:01:10;14.20;99.90
18753;DHT22;9505;50.882;5.350;2023-10-31T12:03:43;14.00;99.90
18753;DHT22;9505;50.882;5.350;2023-10-31T12:06:13;14.10;99.90
18753;DHT22;9505;50.882;5.350;2023-10-31T12:08:41;14.40;99.90
18753;DHT22;9505;50.882;5.350;2023-10-31T12:13:50;14.50;99.90
18753;DHT22;9505;50.882;5.350;2023-10-31T12:16:17;14.30;99.90
18753;DHT22;9505;50.882;5.350;2023-10-31T12:18:43;14.20;99.90
18753;DHT22;9505;50.882;5.350;2023-10-31T12:21:09;14.10;99.90
18753;DHT22;9505;50.882;5.350;2023-10-31T12:23:37;14.10;99.90
18753;DHT22;9505;50.882;5.350;2023-10-31T12:26:03;14.20;99.90
18753;DHT22;9505;50.882;5.350;2023-10-31T12:28:29;14.10;99.90
18753;DHT22;9505;50.882;5.350;2023-10-31T12:30:55;14.00;99.90
18753;DHT22;9505;50.882;5.350;2023-10-31T12:33:22;13.90;99.90
18753;DHT22;9505;50.882;5.350;2023-10-31T12:35:52;14.00;99.90
18753;DHT22;9505;50.882;5.350;2023-10-31T12:38:19;14.10;99.90
18753;DHT22;9505;50.882;5.350;2023-10-31T12:40:45;14.30;99.90
18753;DHT22;9505;50.882;5.350;2023-10-31T12:43:11;14.40;99.90
18753;DHT22;9505;50.882;5.350;2023-10-31T12:45:37;14.50;99.90
18753;DHT22;9505;50.882;5.350;2023-10-31T12:48:07;14.60;99.90
18753;DHT22;9505;50.882;5.350;2023-10-31T12:50:34;14.70;99.90
18753;DHT22;9505;50.882;5.350;2023-10-31T12:53:02;14.50;99.90
18753;DHT22;9505;50.882;5.350;2023-10-31T12:55:29;14.40;99.90
18753;DHT22;9505;50.882;5.350;2023-10-31T12:57:56;14.10;99.90
18753;DHT22;9505;50.882;5.350;2023-10-31T13:00:25;14.10;99.90
18753;DHT22;9505;50.882;5.350;2023-10-31T13:03:06;13.80;99.90
18753;DHT22;9505;50.882;5.350;2023-10-31T13:05:32;13.70;99.90
18753;DHT22;9505;50.882;5.350;2023-10-31T13:08:13;13.80;99.90
18753;DHT22;9505;50.882;5.350;2023-10-31T13:10:39;13.60;99.90
18753;DHT22;9505;50.882;5.350;2023-10-31T13:13:04;13.70;99.90
18753;DHT22;9505;50.882;5.350;2023-10-31T13:15:30;13.90;99.90
18753;DHT22;9505;50.882;5.350;2023-10-31T13:17:56;14.00;99.90
18753;DHT22;9505;50.882;5.350;2023-10-31T13:20:22;14.10;99.90
18753;DHT22;9505;50.882;5.350;2023-10-31T13:22:49;14.00;99.90
18753;DHT22;9505;50.882;5.350;2023-10-31T13:25:15;13.90;99.90
18753;DHT22;9505;50.882;5.350;2023-10-31T13:27:42;13.80;99.90
18753;DHT22;9505;50.882;5.350;2023-10-31T13:30:12;13.70;99.90
18753;DHT22;9505;50.882;5.350;2023-10-31T13:32:42;13.60;99.90
18753;DHT22;9505;50.882;5.350;2023-10-31T13:35:08;13.50;99.90
18753;DHT22;9505;50.882;5.350;2023-10-31T13:37:37;13.40;99.90
18753;DHT22;9505;50.882;5.350;2023-10-31T13:40:03;13.30;99.90
18753;DHT22;9505;50.882;5.350;2023-10-31T13:42:29;13.30;99.90
18753;DHT22;9505;50.882;5.350;2023-10-31T13:44:55;13.40;99.90
18753;DHT22;9505;50.882;5.350;2023-10-31T13:47:20;13.50;99.90
18753;DHT22;9505;50.882;5.350;2023-10-31T13:49:46;13.50;99.90
18753;DHT22;9505;50.882;5.350;2023-10-31T13:52:12;13.50;99.90
18753;DHT22;9505;50.882;5.350;2023-10-31T13:54:38;13.30;99.90
18753;DHT22;9505;50.882;5.350;2023-10-31T13:57:03;13.10;99.90
18753;DHT22;9505;50.882;5.350;2023-10-31T13:59:29;13.00;99.90
18753;DHT22;9505;50.882;5.350;2023-10-31T14:01:55;12.70;99.90
18753;DHT22;9505;50.882;5.350;2023-10-31T14:04:21;12.60;99.90
18753;DHT22;9505;50.882;5.350;2023-10-31T14:06:46;12.50;99.90
18753;DHT22;9505;50.882;5.350;2023-10-31T14:09:13;12.40;99.90
18753;DHT22;9505;50.882;5.350;2023-10-31T14:11:40;12.30;99.90
18753;DHT22;9505;50.882;5.350;2023-10-31T14:14:06;12.10;99.90
18753;DHT22;9505;50.882;5.350;2023-10-31T14:16:33;12.00;99.90
18753;DHT22;9505;50.882;5.350;2023-10-31T14:18:59;12.00;99.90
18753;DHT22;9505;50.882;5.350;2023-10-31T14:21:24;12.00;99.90
18753;DHT22;9505;50.882;5.350;2023-10-31T14:23:51;12.00;99.90
18753;DHT22;9505;50.882;5.350;2023-10-31T14:26:20;12.00;99.90
18753;DHT22;9505;50.882;5.350;2023-10-31T14:28:47;12.00;99.90
18753;DHT22;9505;50.882;5.350;2023-10-31T14:31:13;12.10;99.90
18753;DHT22;9505;50.882;5.350;2023-10-31T14:33:39;12.00;99.90
18753;DHT22;9505;50.882;5.350;2023-10-31T14:36:05;12.00;99.90
18753;DHT22;9505;50.882;5.350;2023-10-31T14:38:30;11.90;99.90
18753;DHT22;9505;50.882;5.350;2023-10-31T14:40:56;12.00;99.90
18753;DHT22;9505;50.882;5.350;2023-10-31T14:43:21;12.00;99.90
18753;DHT22;9505;50.882;5.350;2023-10-31T14:45:47;12.00;99.90
18753;DHT22;9505;50.882;5.350;2023-10-31T14:48:12;12.00;99.90
18753;DHT22;9505;50.882;5.350;2023-10-31T14:50:38;12.00;99.90
18753;DHT22;9505;50.882;5.350;2023-10-31T14:53:05;12.00;99.90
18753;DHT22;9505;50.882;5.350;2023-10-31T14:55:30;12.10;99.90
18753;DHT22;9505;50.882;5.350;2023-10-31T14:57:56;12.00;99.90
18753;DHT22;9505;50.882;5.350;2023-10-31T15:00:21;12.10;99.90
18753;DHT22;9505;50.882;5.350;2023-10-31T15:02:47;12.40;99.90
18753;DHT22;9505;50.882;5.350;2023-10-31T15:05:13;12.40;99.90
18753;DHT22;9505;50.882;5.350;2023-10-31T15:07:38;12.40;99.90
18753;DHT22;9505;50.882;5.350;2023-10-31T15:10:06;12.30;99.90
18753;DHT22;9505;50.882;5.350;2023-10-31T15:12:32;12.30;99.90
18753;DHT22;9505;50.882;5.350;2023-10-31T15:14:58;12.30;99.90
18753;DHT22;9505;50.882;5.350;2023-10-31T15:17:23;12.40;99.90
18753;DHT22;9505;50.882;5.350;2023-10-31T15:19:49;12.40;99.90
18753;DHT22;9505;50.882;5.350;2023-10-31T15:22:14;12.40;99.90
18753;DHT22;9505;50.882;5.350;2023-10-31T15:24:41;12.30;99.90
18753;DHT22;9505;50.882;5.350;2023-10-31T15:27:07;12.30;99.90
18753;DHT22;9505;50.882;5.350;2023-10-31T15:29:33;12.30;99.90
18753;DHT22;9505;50.882;5.350;2023-10-31T15:31:59;12.20;99.90
18753;DHT22;9505;50.882;5.350;2023-10-31T15:34:24;12.10;99.90
18753;DHT22;9505;50.882;5.350;2023-10-31T15:36:50;12.00;99.90
18753;DHT22;9505;50.882;5.350;2023-10-31T15:39:16;12.00;99.90
18753;DHT22;9505;50.882;5.350;2023-10-31T15:41:42;12.00;99.90
18753;DHT22;9505;50.882;5.350;2023-10-31T15:44:08;12.10;99.90
18753;DHT22;9505;50.882;5.350;2023-10-31T15:46:34;12.20;99.90
18753;DHT22;9505;50.882;5.350;2023-10-31T15:49:01;12.20;99.90